Time;durP1;ratioP1;P1;durP2;ratioP2;P2;SDS_P1;SDS_P2;PMS_P1;PMS_P2;Temp;Humidity;BMP_temperature;BMP_pressure;BME280_temperature;BME280_humidity;BME280_pressure;Samples;Min_cycle;Max_cycle;Signal;HPM_P1;HPM_P2
2021/09/20 00:02:21;;;;;;;0.78;0.70;;;;;;;10.23;100.00;98369.19;1623893;87;20974;-73
2021/09/20 00:04:50;;;;;;;0.35;0.35;;;;;;;10.21;100.00;98370.98;1630797;86;21471;-74
2021/09/20 00:07:20;;;;;;;0.72;0.40;;;;;;;10.21;100.00;98370.11;1635233;87;21462;-73
2021/09/20 00:09:47;;;;;;;1.45;0.40;;;;;;;10.21;100.00;98366.16;1627480;84;20897;-73
2021/09/20 00:12:18;;;;;;;0.40;0.40;;;;;;;10.23;100.00;98363.92;1639150;87;21495;-73
2021/09/20 00:14:47;;;;;;;0.47;0.40;;;;;;;10.22;100.00;98366.13;1634807;85;20947;-73
2021/09/20 00:17:16;;;;;;;1.35;0.40;;;;;;;10.22;100.00;98362.63;1631914;86;20918;-73
2021/09/20 00:19:48;;;;;;;0.40;0.40;;;;;;;10.21;100.00;98363.52;1640624;85;21522;-72
2021/09/20 00:22:17;;;;;;;0.50;0.40;;;;;;;10.20;100.00;98368.34;1661501;85;21450;-72
2021/09/20 00:24:49;;;;;;;1.12;0.62;;;;;;;10.18;100.00;98365.73;1634076;86;20963;-72
2021/09/20 00:27:19;;;;;;;0.90;0.50;;;;;;;10.19;100.00;98363.97;1624356;86;20909;-72
2021/09/20 00:29:54;;;;;;;0.53;0.47;;;;;;;10.20;100.00;98367.92;1624208;87;21475;-72
2021/09/20 00:32:24;;;;;;;3.95;0.50;;;;;;;10.21;100.00;98367.03;1639842;85;21482;-73
2021/09/20 00:34:55;;;;;;;0.37;0.37;;;;;;;10.20;100.00;98363.97;1660416;85;20968;-72
2021/09/20 00:37:24;;;;;;;0.40;0.33;;;;;;;10.19;100.00;98366.16;1640951;85;20955;-72
2021/09/20 00:39:53;;;;;;;1.47;0.30;;;;;;;10.17;100.00;98360.04;1631470;86;21470;-72
2021/09/20 00:42:20;;;;;;;0.37;0.30;;;;;;;10.14;100.00;98354.82;1633950;87;21483;-73
2021/09/20 00:44:50;;;;;;;0.72;0.42;;;;;;;10.12;100.00;98355.74;1653358;85;21907;-72
2021/09/20 00:47:17;;;;;;;1.07;0.80;;;;;;;10.10;100.00;98359.27;1661431;86;20872;-72
2021/09/20 00:49:46;;;;;;;1.57;0.40;;;;;;;10.11;100.00;98358.83;1660460;85;20907;-71
2021/09/20 00:52:14;;;;;;;0.50;0.30;;;;;;;10.10;100.00;98358.41;1662624;85;20971;-74
2021/09/20 00:54:42;;;;;;;0.60;0.40;;;;;;;10.10;100.00;98362.36;1655698;85;21037;-69
2021/09/20 00:57:12;;;;;;;0.30;0.30;;;;;;;10.10;100.00;98364.55;1635315;86;20994;-73
2021/09/20 00:59:40;;;;;;;1.05;0.30;;;;;;;10.07;100.00;98360.64;1611298;87;20991;-73
2021/09/20 01:02:08;;;;;;;1.00;0.47;;;;;;;10.05;100.00;98358.94;1628516;86;21106;-71
2021/09/20 01:04:38;;;;;;;0.40;0.40;;;;;;;10.03;100.00;98359.41;1643280;86;21013;-71
2021/09/20 01:07:07;;;;;;;0.40;0.40;;;;;;;10.00;100.00;98358.14;1639152;85;21415;-71
2021/09/20 01:09:40;;;;;;;0.30;0.30;;;;;;;9.97;100.00;98364.77;1636635;86;21090;-71
2021/09/20 01:12:08;;;;;;;1.50;0.35;;;;;;;9.95;100.00;98359.53;1653273;85;21565;-71
2021/09/20 01:14:38;;;;;;;0.33;0.33;;;;;;;9.96;100.00;98363.91;1651438;85;21042;-71
2021/09/20 01:17:07;;;;;;;0.40;0.40;;;;;;;9.94;100.00;98360.42;1653886;85;21485;-71
2021/09/20 01:19:42;;;;;;;10.55;0.82;;;;;;;9.94;100.00;98362.19;1648878;85;20976;-71
2021/09/20 01:22:14;;;;;;;0.77;0.73;;;;;;;9.94;100.00;98360.88;1645728;85;21509;-70
2021/09/20 01:24:43;;;;;;;4.40;1.00;;;;;;;9.93;100.00;98363.95;1666091;86;20903;-71
2021/09/20 01:27:14;;;;;;;1.47;0.90;;;;;;;9.91;100.00;98360.89;1661720;85;21096;-72
2021/09/20 01:29:42;;;;;;;1.10;0.70;;;;;;;9.86;100.00;98362.28;1660296;85;21827;-72
2021/09/20 01:32:11;;;;;;;0.80;0.80;;;;;;;9.84;100.00;98365.39;1649257;86;21007;-71
2021/09/20 01:34:43;;;;;;;0.72;0.72;;;;;;;9.88;100.00;98374.11;1649365;85;21538;-71
2021/09/20 01:37:15;;;;;;;1.12;0.90;;;;;;;9.88;100.00;98362.26;1637714;86;21530;-73
2021/09/20 01:39:43;;;;;;;2.92;1.00;;;;;;;9.87;100.00;98361.39;1652320;85;21386;-74
2021/09/20 01:42:13;;;;;;;1.42;1.00;;;;;;;9.86;100.00;98357.46;1648878;87;20901;-71
2021/09/20 01:44:41;;;;;;;0.98;0.55;;;;;;;9.87;100.00;98351.30;1653732;86;20959;-71
2021/09/20 01:47:10;;;;;;;1.05;0.50;;;;;;;9.88;100.00;98359.63;1652341;85;20967;-71
2021/09/20 01:49:37;;;;;;;0.47;0.40;;;;;;;9.88;100.00;98356.98;1650782;86;20960;-71
2021/09/20 01:52:05;;;;;;;0.40;0.40;;;;;;;9.85;100.00;98347.81;1652267;86;21950;-72
2021/09/20 01:54:33;;;;;;;0.40;0.40;;;;;;;9.86;100.00;98352.19;1647804;85;21095;-71
2021/09/20 01:57:01;;;;;;;0.57;0.40;;;;;;;9.90;100.00;98348.16;1652589;85;21527;-71
2021/09/20 01:59:30;;;;;;;0.33;0.33;;;;;;;9.91;100.00;98347.27;1659393;84;20926;-71
2021/09/20 02:01:57;;;;;;;0.50;0.50;;;;;;;9.91;100.00;98345.09;1667234;85;20888;-71
2021/09/20 02:04:25;;;;;;;0.60;0.60;;;;;;;9.91;100.00;98351.67;1670883;85;21495;-71
2021/09/20 02:06:53;;;;;;;0.72;0.65;;;;;;;9.90;100.00;98347.30;1636782;85;20972;-72
2021/09/20 02:09:23;;;;;;;0.88;0.57;;;;;;;9.88;100.00;98340.73;1665474;83;20975;-72
2021/09/20 02:11:51;;;;;;;2.62;0.53;;;;;;;9.89;100.00;98340.29;1679270;84;21440;-72
2021/09/20 02:14:21;;;;;;;0.65;0.50;;;;;;;9.86;100.00;98336.39;1668546;84;21424;-72
2021/09/20 02:16:49;;;;;;;0.50;0.50;;;;;;;9.85;100.00;98339.47;1666726;84;21113;-72
2021/09/20 02:19:18;;;;;;;1.37;0.37;;;;;;;9.86;100.00;98345.16;1665076;84;20885;-72
2021/09/20 02:21:45;;;;;;;0.70;0.40;;;;;;;9.85;100.00;98346.50;1655352;85;20946;-72
2021/09/20 02:24:14;;;;;;;0.75;0.60;;;;;;;9.85;100.00;98350.01;1652013;86;21494;-71
2021/09/20 02:26:42;;;;;;;1.25;1.00;;;;;;;9.87;100.00;98356.56;1659934;84;21002;-72
2021/09/20 02:29:11;;;;;;;1.75;1.50;;;;;;;9.89;100.00;98356.09;1665575;84;21443;-71
2021/09/20 02:31:40;;;;;;;3.05;1.45;;;;;;;9.88;100.00;98349.95;1664458;86;21461;-71
2021/09/20 02:34:09;;;;;;;1.75;0.70;;;;;;;9.86;100.00;98347.80;1660392;85;21391;-71
2021/09/20 02:36:39;;;;;;;1.00;0.80;;;;;;;9.85;100.00;98342.10;1644044;85;20920;-72
2021/09/20 02:39:08;;;;;;;0.53;0.40;;;;;;;9.87;100.00;98345.58;1652494;85;20983;-73
2021/09/20 02:41:35;;;;;;;0.60;0.60;;;;;;;9.90;100.00;98344.22;1653940;85;21092;-72
2021/09/20 02:44:04;;;;;;;0.45;0.45;;;;;;;9.90;100.00;98345.98;1652296;86;21470;-72
2021/09/20 02:46:32;;;;;;;0.60;0.60;;;;;;;9.91;100.00;98347.27;1651514;86;20982;-72
2021/09/20 02:49:02;;;;;;;0.50;0.50;;;;;;;9.90;100.00;98346.85;1649263;86;21447;-72
2021/09/20 02:51:31;;;;;;;0.50;0.50;;;;;;;9.91;100.00;98351.67;1651585;85;21484;-72
2021/09/20 02:54:00;;;;;;;0.50;0.50;;;;;;;9.90;100.00;98355.20;1650308;86;21458;-72
2021/09/20 02:56:29;;;;;;;0.50;0.50;;;;;;;9.88;100.00;98352.59;1650935;85;21444;-72
2021/09/20 02:58:57;;;;;;;0.40;0.40;;;;;;;9.89;100.00;98352.14;1651880;85;20924;-69
2021/09/20 03:01:27;;;;;;;1.35;0.70;;;;;;;9.90;100.00;98353.88;1656388;86;20955;-71
2021/09/20 03:04:00;;;;;;;0.55;0.42;;;;;;;9.91;100.00;98357.81;1650099;85;21490;-72
2021/09/20 03:06:27;;;;;;;0.90;0.55;;;;;;;9.92;100.00;98360.00;1651491;86;21086;-70
2021/09/20 03:08:58;;;;;;;0.70;0.50;;;;;;;9.92;100.00;98356.05;1656972;86;21422;-71
2021/09/20 03:11:27;;;;;;;1.75;0.70;;;;;;;9.93;100.00;98367.91;1653301;85;20939;-71
2021/09/20 03:13:57;;;;;;;0.50;0.50;;;;;;;9.92;100.00;98361.31;1636481;86;20954;-73
2021/09/20 03:16:27;;;;;;;0.80;0.70;;;;;;;9.93;100.00;98371.86;1624065;87;21495;-72
2021/09/20 03:18:56;;;;;;;1.82;0.70;;;;;;;9.95;100.00;98366.12;1666511;86;21716;-72
2021/09/20 03:21:27;;;;;;;1.65;1.32;;;;;;;9.99;100.00;98370.44;1663167;85;21446;-72
2021/09/20 03:24:01;;;;;;;1.25;1.00;;;;;;;9.99;100.00;98372.20;1661354;86;21400;-74
2021/09/20 03:26:34;;;;;;;1.77;0.90;;;;;;;9.97;100.00;98369.59;1664654;84;20935;-69
2021/09/20 03:29:06;;;;;;;1.15;0.70;;;;;;;10.01;100.00;98376.55;1662777;85;21431;-73
2021/09/20 03:31:35;;;;;;;0.70;0.70;;;;;;;10.01;100.00;98374.38;1662789;85;21109;-73
2021/09/20 03:34:04;;;;;;;1.07;0.80;;;;;;;10.04;100.00;98385.73;1665144;84;21442;-72
2021/09/20 03:36:34;;;;;;;1.75;0.70;;;;;;;10.08;100.00;98383.91;1666093;84;21480;-69
2021/09/20 03:39:04;;;;;;;1.40;0.93;;;;;;;10.10;100.00;98385.63;1665276;84;21462;-72
2021/09/20 03:41:32;;;;;;;2.40;1.30;;;;;;;10.14;100.00;98386.45;1665617;86;20849;-73
2021/09/20 03:44:00;;;;;;;3.62;1.10;;;;;;;10.19;100.00;98384.60;1663047;86;21068;-72
2021/09/20 03:46:30;;;;;;;1.82;1.17;;;;;;;10.19;100.00;98387.69;1663454;84;21442;-70
2021/09/20 03:49:01;;;;;;;4.37;1.30;;;;;;;10.20;100.00;98390.74;1666125;84;20962;-70
2021/09/20 03:51:30;;;;;;;1.20;1.10;;;;;;;10.21;100.00;98393.39;1665690;84;21446;-71
2021/09/20 03:54:00;;;;;;;1.80;1.30;;;;;;;10.21;100.00;98393.39;1662965;86;20939;-70
2021/09/20 03:56:29;;;;;;;2.22;1.12;;;;;;;10.20;100.00;98394.70;1662813;85;21063;-70
2021/09/20 03:58:56;;;;;;;1.87;1.40;;;;;;;10.20;100.00;98391.65;1651319;86;20892;-70
2021/09/20 04:01:26;;;;;;;3.12;1.25;;;;;;;10.25;100.00;98392.44;1662792;85;20956;-67
2021/09/20 04:03:54;;;;;;;4.67;1.40;;;;;;;10.29;100.00;98390.17;1664528;86;21561;-70
2021/09/20 04:06:23;;;;;;;2.17;1.37;;;;;;;10.30;100.00;98389.72;1665514;84;21475;-71
2021/09/20 04:08:53;;;;;;;2.55;1.32;;;;;;;10.28;100.00;98392.39;1680817;84;21662;-73
2021/09/20 04:11:21;;;;;;;2.05;0.88;;;;;;;10.27;100.00;98393.73;1661640;85;20979;-70
2021/09/20 04:13:48;;;;;;;1.72;1.57;;;;;;;10.23;100.00;98397.31;1650614;86;21411;-69
2021/09/20 04:16:17;;;;;;;1.32;1.22;;;;;;;10.22;100.00;98404.35;1651885;85;20888;-70
2021/09/20 04:18:46;;;;;;;2.15;1.27;;;;;;;10.22;100.00;98407.44;1651286;85;20975;-71
2021/09/20 04:21:15;;;;;;;1.87;1.50;;;;;;;10.23;100.00;98402.14;1651530;85;20923;-71
2021/09/20 04:23:43;;;;;;;2.67;1.82;;;;;;;10.25;100.00;98408.25;1652322;86;20948;-70
2021/09/20 04:26:11;;;;;;;4.80;1.80;;;;;;;10.27;100.00;98401.64;1652732;86;20924;-70
2021/09/20 04:28:39;;;;;;;1.85;1.50;;;;;;;10.28;100.00;98405.56;1652926;85;20884;-71
2021/09/20 04:31:07;;;;;;;2.72;1.57;;;;;;;10.28;100.00;98403.38;1652665;85;21504;-71
2021/09/20 04:33:35;;;;;;;5.00;1.32;;;;;;;10.24;100.00;98399.92;1652832;86;21070;-71
2021/09/20 04:36:04;;;;;;;2.02;1.22;;;;;;;10.26;100.00;98409.13;1652678;86;20924;-71
2021/09/20 04:38:32;;;;;;;1.90;1.30;;;;;;;10.27;100.00;98409.55;1651497;86;20928;-71
2021/09/20 04:41:02;;;;;;;1.72;1.32;;;;;;;10.29;100.00;98406.44;1635287;86;20941;-70
2021/09/20 04:43:31;;;;;;;1.67;1.37;;;;;;;10.30;100.00;98416.09;1634494;86;20944;-71
2021/09/20 04:46:00;;;;;;;1.37;1.27;;;;;;;10.30;100.00;98416.95;1650554;85;21938;-70
2021/09/20 04:48:27;;;;;;;1.40;1.27;;;;;;;10.28;100.00;98421.83;1647856;85;21046;-71
2021/09/20 04:50:57;;;;;;;1.70;1.60;;;;;;;10.29;100.00;98426.20;1643640;86;21005;-70
2021/09/20 04:53:26;;;;;;;3.02;1.80;;;;;;;10.26;100.00;98427.12;1628111;87;21095;-71
2021/09/20 04:55:53;;;;;;;2.08;1.45;;;;;;;10.26;100.00;98430.21;1627415;86;20936;-70
2021/09/20 04:58:21;;;;;;;1.75;1.22;;;;;;;10.25;100.00;98430.66;1637465;86;21714;-70
2021/09/20 05:00:49;;;;;;;2.27;1.50;;;;;;;10.29;100.00;98435.44;1632308;86;20930;-70
2021/09/20 05:03:17;;;;;;;1.42;1.20;;;;;;;10.32;100.00;98434.06;1641836;86;20929;-70
2021/09/20 05:05:44;;;;;;;1.92;1.32;;;;;;;10.32;100.00;98432.74;1645357;85;20996;-70
2021/09/20 05:08:12;;;;;;;1.30;1.10;;;;;;;10.32;100.00;98435.38;1652129;85;21414;-71
2021/09/20 05:10:41;;;;;;;1.37;1.27;;;;;;;10.31;100.00;98433.19;1646974;85;21172;-71
2021/09/20 05:13:09;;;;;;;1.62;1.30;;;;;;;10.32;100.00;98433.61;1635228;87;20980;-71
2021/09/20 05:15:37;;;;;;;1.80;1.37;;;;;;;10.34;100.00;98441.50;1630765;86;21526;-70
2021/09/20 05:18:06;;;;;;;1.55;1.32;;;;;;;10.33;100.00;98430.53;1601534;88;20933;-71
2021/09/20 05:20:37;;;;;;;2.77;1.90;;;;;;;10.38;100.00;98433.52;1629700;86;20895;-70
2021/09/20 05:23:06;;;;;;;2.80;2.45;;;;;;;10.42;100.00;98438.32;1616029;88;21875;-70
2021/09/20 05:25:34;;;;;;;15.55;10.63;;;;;;;10.46;100.00;98440.45;1620339;87;20927;-70
2021/09/20 05:28:03;;;;;;;14.87;11.53;;;;;;;10.47;100.00;98441.75;1621761;87;21507;-71
2021/09/20 05:30:31;;;;;;;9.50;7.97;;;;;;;10.49;100.00;98448.31;1615711;88;20983;-70
2021/09/20 05:32:59;;;;;;;7.15;6.45;;;;;;;10.50;100.00;98443.46;1615528;88;20893;-70
2021/09/20 05:35:27;;;;;;;4.80;4.30;;;;;;;10.50;100.00;98448.28;1625360;86;21101;-69
2021/09/20 05:37:54;;;;;;;5.62;4.85;;;;;;;10.52;100.00;98448.27;1632189;87;20973;-70
2021/09/20 05:40:27;;;;;;;8.78;6.25;;;;;;;10.53;100.00;98450.88;1632555;86;21024;-70
2021/09/20 05:42:56;;;;;;;4.75;4.20;;;;;;;10.53;100.00;98450.00;1635038;86;21440;-70
2021/09/20 05:45:22;;;;;;;3.08;2.77;;;;;;;10.52;100.00;98446.94;1617313;86;20908;-70
2021/09/20 05:47:51;;;;;;;4.35;3.95;;;;;;;10.51;100.00;98442.56;1631804;86;21083;-70
2021/09/20 05:50:20;;;;;;;3.90;3.37;;;;;;;10.53;100.00;98446.91;1626784;87;20971;-69
2021/09/20 05:52:48;;;;;;;3.65;2.83;;;;;;;10.55;100.00;98450.39;1610990;88;20968;-69
2021/09/20 05:55:16;;;;;;;2.30;2.05;;;;;;;10.58;100.00;98452.98;1611255;88;21428;-70
2021/09/20 05:57:45;;;;;;;1.50;1.40;;;;;;;10.61;100.00;98452.92;1615995;88;20925;-70
2021/09/20 06:00:13;;;;;;;5.28;4.47;;;;;;;10.69;100.00;98456.30;1615264;88;21112;-70
2021/09/20 06:02:42;;;;;;;18.27;14.20;;;;;;;10.71;100.00;98463.73;1615169;88;21461;-70
2021/09/20 06:05:13;;;;;;;14.28;10.80;;;;;;;10.74;100.00;98464.13;1614284;88;20985;-70
2021/09/20 06:07:40;;;;;;;6.25;4.85;;;;;;;10.76;100.00;98467.61;1626905;87;20939;-71
2021/09/20 06:10:09;;;;;;;3.92;2.90;;;;;;;10.80;100.00;98465.78;1616022;88;20932;-70
2021/09/20 06:12:37;;;;;;;2.15;1.98;;;;;;;10.77;100.00;98474.63;1649231;85;21772;-70
2021/09/20 06:15:06;;;;;;;12.78;6.17;;;;;;;10.78;100.00;98476.37;1662993;86;20974;-71
2021/09/20 06:17:35;;;;;;;16.95;8.73;;;;;;;10.79;100.00;98484.70;1661692;84;21532;-69
2021/09/20 06:20:03;;;;;;;21.62;9.55;;;;;;;10.81;100.00;98474.99;1665034;85;20947;-71
2021/09/20 06:22:33;;;;;;;12.80;6.58;;;;;;;10.85;100.00;98472.72;1664865;85;20888;-70
2021/09/20 06:25:00;;;;;;;3.85;2.67;;;;;;;10.85;100.00;98483.27;1663349;84;21749;-71
2021/09/20 06:27:29;;;;;;;1.90;1.20;;;;;;;10.85;100.00;98471.85;1669495;84;20946;-70
2021/09/20 06:29:57;;;;;;;2.83;2.10;;;;;;;10.85;100.00;98475.81;1662860;84;21004;-69
2021/09/20 06:32:24;;;;;;;3.75;1.77;;;;;;;10.84;100.00;98478.89;1663436;84;20931;-69
2021/09/20 06:34:52;;;;;;;1.72;1.37;;;;;;;10.89;100.00;98484.13;1665308;84;20943;-70
2021/09/20 06:37:19;;;;;;;1.47;1.00;;;;;;;10.91;100.00;98476.59;1665718;84;21783;-69
2021/09/20 06:39:47;;;;;;;17.57;6.30;;;;;;;10.94;100.00;98479.63;1646805;85;20920;-70
2021/09/20 06:42:14;;;;;;;15.58;8.40;;;;;;;11.00;100.00;98480.84;1665447;84;20971;-69
2021/09/20 06:44:42;;;;;;;7.03;4.90;;;;;;;11.06;100.00;98480.72;1663297;84;21466;-69
2021/09/20 06:47:11;;;;;;;3.17;2.05;;;;;;;11.08;100.00;98486.84;1652751;85;21579;-69
2021/09/20 06:49:38;;;;;;;2.42;1.22;;;;;;;11.11;100.00;98488.55;1652884;85;21963;-68
2021/09/20 06:52:06;;;;;;;2.80;1.90;;;;;;;11.14;100.00;98492.45;1653638;85;20865;-69
2021/09/20 06:54:33;;;;;;;2.98;2.52;;;;;;;11.17;100.00;98497.23;1651976;85;20915;-70
2021/09/20 06:57:01;;;;;;;2.35;1.80;;;;;;;11.20;100.00;98501.13;1663673;84;21006;-70
2021/09/20 06:59:33;;;;;;;1.82;1.30;;;;;;;11.21;100.00;98494.95;1651375;86;20964;-69
2021/09/20 07:01:58;;;;;;;1.15;1.05;;;;;;;11.21;100.00;98505.50;1653015;85;21815;-69
2021/09/20 07:04:27;;;;;;;10.18;7.62;;;;;;;11.24;100.00;98506.77;1661277;84;20915;-69
2021/09/20 07:06:55;;;;;;;12.63;10.48;;;;;;;11.31;100.00;98515.44;1664024;85;21383;-69
2021/09/20 07:09:23;;;;;;;10.40;9.30;;;;;;;11.35;100.00;98511.84;1664210;84;20923;-62
2021/09/20 07:11:50;;;;;;;10.50;6.12;;;;;;;11.39;100.00;98511.36;1655522;84;21498;-64
2021/09/20 07:14:18;;;;;;;5.35;4.50;;;;;;;11.41;100.00;98507.80;1638418;85;21777;-64
2021/09/20 07:16:46;;;;;;;3.95;3.60;;;;;;;11.43;100.00;98512.59;1624995;86;20964;-64
2021/09/20 07:19:15;;;;;;;1.92;1.72;;;;;;;11.45;100.00;98524.00;1636400;86;20923;-62
2021/09/20 07:21:43;;;;;;;1.37;1.12;;;;;;;11.48;100.00;98524.39;1638085;85;21498;-63
2021/09/20 07:24:11;;;;;;;1.17;1.07;;;;;;;11.51;100.00;98525.64;1639157;85;21040;-64
2021/09/20 07:26:40;;;;;;;4.40;4.00;;;;;;;11.55;100.00;98533.48;1634187;86;22418;-64
2021/09/20 07:29:08;;;;;;;2.15;1.95;;;;;;;11.62;100.00;98539.06;1654590;85;21436;-64
2021/09/20 07:31:36;;;;;;;3.52;3.22;;;;;;;11.68;100.00;98540.25;1641291;85;20935;-65
2021/09/20 07:34:03;;;;;;;2.20;2.00;;;;;;;11.74;100.00;98545.86;1630229;86;21454;-64
2021/09/20 07:36:31;;;;;;;3.80;3.22;;;;;;;11.80;100.00;98539.61;1640876;85;20915;-63
2021/09/20 07:38:59;;;;;;;2.50;2.30;;;;;;;11.84;100.00;98538.69;1652707;85;21087;-63
2021/09/20 07:41:27;;;;;;;3.40;2.50;;;;;;;11.87;100.00;98539.94;1660482;85;21450;-64
2021/09/20 07:43:55;;;;;;;1.67;1.30;;;;;;;11.88;100.00;98542.55;1631164;86;21436;-63
2021/09/20 07:46:23;;;;;;;1.95;1.20;;;;;;;11.88;100.00;98539.91;1632783;86;20921;-62
2021/09/20 07:48:51;;;;;;;3.98;2.50;;;;;;;11.91;100.00;98546.90;1649078;85;20936;-65
2021/09/20 07:51:19;;;;;;;2.52;1.80;;;;;;;11.92;100.00;98553.47;1644812;85;21094;-63
2021/09/20 07:53:47;;;;;;;2.33;2.12;;;;;;;11.98;100.00;98556.44;1633831;85;20893;-64
2021/09/20 07:56:15;;;;;;;2.00;1.77;;;;;;;12.04;100.00;98560.27;1634687;86;21515;-63
2021/09/20 07:58:42;;;;;;;2.08;1.40;;;;;;;12.08;100.00;98558.43;1628290;86;21090;-64
2021/09/20 08:01:10;;;;;;;1.07;1.00;;;;;;;12.12;100.00;98560.97;1638298;86;20972;-63
2021/09/20 08:03:37;;;;;;;1.20;0.98;;;;;;;12.14;100.00;98559.62;1636135;85;21090;-63
2021/09/20 08:06:07;;;;;;;0.80;0.80;;;;;;;12.16;100.00;98555.17;1633439;85;20960;-63
2021/09/20 08:08:35;;;;;;;2.62;1.50;;;;;;;12.17;100.00;98557.78;1637706;86;20927;-65
2021/09/20 08:11:03;;;;;;;1.20;1.10;;;;;;;12.17;100.00;98563.52;1642165;86;20956;-64
2021/09/20 08:13:31;;;;;;;2.47;2.25;;;;;;;12.14;100.00;98557.84;1654349;85;20958;-65
2021/09/20 08:16:00;;;;;;;1.20;1.10;;;;;;;12.13;100.00;98560.52;1654362;85;21420;-64
2021/09/20 08:18:28;;;;;;;1.00;0.90;;;;;;;12.17;100.00;98563.52;1654637;85;20908;-64
2021/09/20 08:20:58;;;;;;;0.70;0.50;;;;;;;12.20;100.00;98563.00;1654294;85;21503;-64
2021/09/20 08:23:27;;;;;;;0.90;0.72;;;;;;;12.24;100.00;98555.41;1654582;85;20959;-64
2021/09/20 08:25:55;;;;;;;1.15;0.90;;;;;;;12.34;100.00;98559.20;1651358;85;20955;-64
2021/09/20 08:28:23;;;;;;;2.17;0.90;;;;;;;12.41;100.00;98568.29;1639645;86;21064;-65
2021/09/20 08:30:51;;;;;;;1.10;0.72;;;;;;;12.47;100.00;98567.28;1640040;85;20907;-64
2021/09/20 08:33:18;;;;;;;2.45;0.90;;;;;;;12.52;100.00;98564.08;1654609;85;21043;-65
2021/09/20 08:35:46;;;;;;;1.32;1.10;;;;;;;12.56;100.00;98561.32;1652376;85;20924;-64
2021/09/20 08:38:13;;;;;;;5.58;1.37;;;;;;;12.61;100.00;98564.73;1644881;85;21020;-69
2021/09/20 08:40:41;;;;;;;1.30;1.20;;;;;;;12.66;100.00;98559.78;1644684;85;21618;-67
2021/09/20 08:43:09;;;;;;;1.70;0.80;;;;;;;12.72;100.00;98560.50;1652609;85;20927;-69
2021/09/20 08:45:38;;;;;;;0.93;0.88;;;;;;;12.80;100.00;98562.99;1654319;85;20910;-68
2021/09/20 08:48:06;;;;;;;1.17;0.75;;;;;;;12.88;100.00;98561.02;1649128;85;21514;-70
2021/09/20 08:50:36;;;;;;;3.42;0.80;;;;;;;12.98;100.00;98559.89;1636665;85;21506;-69
2021/09/20 08:53:06;;;;;;;1.55;0.75;;;;;;;13.15;100.00;98561.64;1654584;85;21079;-70
2021/09/20 08:55:34;;;;;;;0.90;0.70;;;;;;;13.36;100.00;98563.38;1653670;85;21443;-69
2021/09/20 08:58:03;;;;;;;2.08;0.70;;;;;;;13.55;100.00;98558.00;1643453;85;21463;-70
2021/09/20 09:00:34;;;;;;;0.90;0.78;;;;;;;13.75;100.00;98564.97;1653795;85;21416;-70
2021/09/20 09:03:04;;;;;;;0.50;0.50;;;;;;;13.96;100.00;98557.31;1638646;86;36575;-70
2021/09/20 09:05:34;;;;;;;1.47;0.60;;;;;;;14.13;100.00;98554.56;1647252;85;21420;-70
2021/09/20 09:08:05;;;;;;;1.12;0.85;;;;;;;14.22;100.00;98555.23;1642700;85;20936;-71
2021/09/20 09:10:36;;;;;;;3.92;1.00;;;;;;;14.28;100.00;98555.05;1622700;87;21431;-72
2021/09/20 09:13:07;;;;;;;1.70;0.70;;;;;;;14.28;100.00;98554.59;1621889;86;20924;-69
2021/09/20 09:15:36;;;;;;;1.47;1.00;;;;;;;14.26;100.00;98557.75;1654414;86;20967;-69
2021/09/20 09:18:06;;;;;;;2.40;0.80;;;;;;;14.19;100.00;98560.18;1662998;84;21506;-70
2021/09/20 09:20:38;;;;;;;2.15;2.00;;;;;;;14.07;100.00;98563.16;1644363;86;21058;-69
2021/09/20 09:23:09;;;;;;;1.75;1.65;;;;;;;14.00;100.00;98564.26;1666533;84;20919;-70
2021/09/20 09:25:40;;;;;;;3.75;1.00;;;;;;;13.97;100.00;98570.98;1635408;86;20913;-69
2021/09/20 09:28:21;;;;;;;1.35;1.07;;;;;;;13.87;100.00;98571.70;1654427;85;20887;-69
2021/09/20 09:30:54;;;;;;;2.53;0.93;;;;;;;13.71;100.00;98575.20;1657606;84;21072;-69
2021/09/20 09:33:39;;;;;;;1.00;0.90;;;;;;;13.59;100.00;98579.53;1628578;85;21634;-72
2021/09/20 09:36:11;;;;;;;2.72;1.85;;;;;;;13.48;100.00;98579.81;1642625;85;21451;-70
2021/09/20 09:39:00;;;;;;;2.42;2.12;;;;;;;13.36;100.00;98581.92;1662313;85;20879;-71
2021/09/20 09:41:39;;;;;;;3.65;1.60;;;;;;;13.28;100.00;98586.55;1648199;86;20891;-71
2021/09/20 09:44:13;;;;;;;1.87;1.30;;;;;;;13.26;100.00;98589.70;1656491;85;21080;-74
2021/09/20 09:46:43;;;;;;;3.25;1.10;;;;;;;13.25;100.00;98587.96;1650184;85;21443;-75
2021/09/20 09:49:17;;;;;;;1.80;0.90;;;;;;;13.27;100.00;98588.34;1656364;85;20948;-70
2021/09/20 09:52:12;;;;;;;1.17;0.88;;;;;;;13.28;100.00;98593.17;1637453;85;20999;-70
2021/09/20 09:54:40;;;;;;;1.07;0.98;;;;;;;13.29;100.00;98589.16;1657526;84;20939;-70
2021/09/20 09:57:23;;;;;;;1.55;1.15;;;;;;;13.29;100.00;98581.67;1666483;84;21090;-70
2021/09/20 10:00:04;;;;;;;2.35;1.20;;;;;;;13.32;100.00;98588.22;1671179;84;20927;-71
2021/09/20 10:02:37;;;;;;;2.17;1.60;;;;;;;13.30;100.00;98592.68;1671166;84;20930;-70
2021/09/20 10:05:12;;;;;;;1.25;1.02;;;;;;;13.28;100.00;98591.85;1667610;84;20927;-70
2021/09/20 10:07:46;;;;;;;4.72;1.42;;;;;;;13.26;100.00;98591.89;1666468;84;20963;-71
2021/09/20 10:10:26;;;;;;;2.35;1.10;;;;;;;13.27;100.00;98594.09;1630267;86;21059;-71
2021/09/20 10:12:57;;;;;;;2.50;1.12;;;;;;;13.28;100.00;98593.17;1651210;84;20880;-70
2021/09/20 10:15:27;;;;;;;0.90;0.70;;;;;;;13.26;100.00;98593.22;1638007;85;21439;-69
2021/09/20 10:17:55;;;;;;;3.10;0.80;;;;;;;13.28;100.00;98598.47;1644121;85;21454;-70
2021/09/20 10:20:25;;;;;;;2.12;1.20;;;;;;;13.33;100.00;98600.09;1629840;86;20901;-71
2021/09/20 10:22:55;;;;;;;1.35;0.93;;;;;;;13.34;100.00;98598.31;1622421;88;21078;-69
2021/09/20 10:25:26;;;;;;;0.78;0.60;;;;;;;13.37;100.00;98599.10;1621732;87;20930;-70
2021/09/20 10:27:54;;;;;;;0.93;0.82;;;;;;;13.40;100.00;98595.05;1622693;87;20881;-69
2021/09/20 10:30:29;;;;;;;1.72;1.17;;;;;;;13.42;100.00;98606.93;1624565;87;20912;-69
2021/09/20 10:33:03;;;;;;;2.42;1.17;;;;;;;13.42;100.00;98604.28;1630922;86;21433;-70
2021/09/20 10:35:42;;;;;;;2.22;1.35;;;;;;;13.43;100.00;98602.05;1640956;85;21791;-70
2021/09/20 10:38:26;;;;;;;2.25;1.17;;;;;;;13.42;100.00;98602.95;1631549;85;20920;-71
2021/09/20 10:41:13;;;;;;;1.55;1.00;;;;;;;13.40;100.00;98608.30;1631759;86;20924;-71
2021/09/20 10:43:46;;;;;;;3.95;1.35;;;;;;;13.39;100.00;98601.71;1623446;87;20897;-71
2021/09/20 10:46:25;;;;;;;2.42;1.27;;;;;;;13.40;100.00;98604.78;1636107;86;20976;-70
2021/09/20 10:48:55;;;;;;;1.55;1.00;;;;;;;13.42;100.00;98602.95;1642381;85;22149;-69
2021/09/20 10:51:37;;;;;;;1.30;0.95;;;;;;;13.45;100.00;98596.25;1645408;85;20949;-69
2021/09/20 10:54:17;;;;;;;1.30;1.05;;;;;;;13.51;100.00;98596.95;1630986;86;21018;-69
2021/09/20 10:56:47;;;;;;;1.50;1.00;;;;;;;13.56;100.00;98606.11;1639777;85;21417;-70
2021/09/20 10:59:16;;;;;;;4.30;1.20;;;;;;;13.59;100.00;98602.51;1645964;86;20980;-70
2021/09/20 11:01:45;;;;;;;1.82;1.30;;;;;;;13.60;100.00;98598.48;1631182;86;21113;-70
2021/09/20 11:04:28;;;;;;;3.42;1.27;;;;;;;13.58;100.00;98599.44;1631318;85;20888;-70
2021/09/20 11:07:21;;;;;;;3.75;0.90;;;;;;;13.60;100.00;98593.64;1643486;85;20889;-70
2021/09/20 11:09:56;;;;;;;2.15;1.07;;;;;;;13.67;100.00;98595.22;1651737;85;20879;-70
2021/09/20 11:12:25;;;;;;;4.05;1.10;;;;;;;13.75;100.00;98596.77;1646193;85;21007;-70
2021/09/20 11:15:12;;;;;;;1.20;1.10;;;;;;;13.84;100.00;98583.27;1651355;85;20908;-70
2021/09/20 11:17:44;;;;;;;2.60;1.10;;;;;;;13.99;100.00;98583.28;1638918;85;20946;-70
2021/09/20 11:20:26;;;;;;;3.02;1.30;;;;;;;14.11;100.00;98588.22;1654123;85;20959;-70
2021/09/20 11:23:16;;;;;;;1.30;1.20;;;;;;;14.14;100.00;98582.83;1641244;85;21472;-70
2021/09/20 11:26:06;;;;;;;0.93;0.93;;;;;;;14.18;100.00;98585.80;1631291;85;21448;-69
2021/09/20 11:28:35;;;;;;;1.67;1.30;;;;;;;14.27;100.00;98584.69;1638446;86;21139;-70
2021/09/20 11:31:04;;;;;;;3.55;1.40;;;;;;;14.34;100.00;98582.27;1648647;85;21451;-70
2021/09/20 11:33:41;;;;;;;1.45;1.02;;;;;;;14.40;100.00;98591.36;1647332;85;20912;-71
2021/09/20 11:36:19;;;;;;;1.20;1.10;;;;;;;14.42;100.00;98591.31;1654523;85;20928;-70
2021/09/20 11:38:49;;;;;;;0.90;0.90;;;;;;;14.45;100.00;98585.48;1643670;85;20967;-71
2021/09/20 11:41:21;;;;;;;6.45;1.10;;;;;;;14.56;100.00;98577.66;1654717;85;21428;-71